• Join FlightAware (Why Join?)
  • Login
  • US Flag 
01:55PM EST


 

Airport Tracker/Info


-or-


 

Live Flight TrackerFlight Track Log ✈ UAL4498 ✈ 01-May-2013 ✈ KMAF - KIAH

Flight Track Log - Related Links

Times and Time Zones

All times are in EDT time to prevent confusion due to time zone crossing. See the UAL4498 flight status page for this flight to view local times or setup timezone preferences in your user account.

Time Position Orientation Groundspeed Altitude Reporting Facility
EDT Latitude Longitude Course Direction KTS MPH feet Rate Location/Type
02:27PM 32.0111 -102.2053 106° East 194 223 5,100  Level Fort Worth Center
02:28PM 32.0033 -102.1389 98° East 161 185 6,800 1,400 Climbing Fort Worth Center
02:29PM 31.8189 -101.8233 111° Southeast  Level FlightAware Approximate
02:29PM 31.9750 -102.0589 113° Southeast 193 222 7,900  Level Fort Worth Center
02:30PM 31.7855 -101.7310 113° Southeast  Level FlightAware Approximate
02:30PM 31.9383 -101.9739 117° Southeast 266 306 9,500  Level Fort Worth Center
02:31PM 31.7520 -101.6388 113° Southeast  Level FlightAware Approximate
02:31PM 31.8850 -101.8953 129° Southeast 278 320 10,700  Level Fort Worth Center
02:32PM 31.7274 -101.5429 106° East  Level FlightAware Approximate
02:32PM 31.8233 -101.8092 130° Southeast 306 352 11,700  Level Fort Worth Center
02:33PM 31.7619 -101.7133 127° Southeast 347 399 12,700 1,050 Climbing Fort Worth Center
02:34PM 31.7006 -101.6153 126° Southeast 364 419 13,800 1,150 Climbing Fort Worth Center
02:35PM 31.6628 -101.4942 110° East 376 433 15,000 1,150 Climbing Fort Worth Center
02:36PM 31.6269 -101.3753 109° East 381 438 16,100 1,300 Climbing Fort Worth Center
02:37PM 31.5889 -101.2542 110° East 392 451 17,600 1,550 Climbing Fort Worth Center
02:38PM 31.5506 -101.1358 111° Southeast 392 451 19,200 1,500 Climbing Fort Worth Center
02:39PM 31.5164 -101.0197 109° East 387 445 20,600 1,400 Climbing Fort Worth Center
02:40PM 31.4781 -100.9014 111° Southeast 387 445 22,000 1,250 Climbing Fort Worth Center
02:41PM 31.4492 -100.8078 110° East 387 445 23,100 1,000 Climbing Fort Worth Center
02:43PM 31.3722 -100.5669 110° East 391 450 25,000 626 Climbing Houston Center
02:44PM 31.3231 -100.4108 110° East 421 484 25,000  Level Houston Center
02:45PM 31.2781 -100.2758 111° Southeast 440 506 25,000  Level Houston Center
02:46PM 31.2325 -100.1364 111° Southeast 455 524 25,000  Level Houston Center
02:47PM 31.1889 -99.9958 110° East 460 529 25,000  Level Houston Center
02:48PM 31.1428 -99.8533 111° Southeast 468 539 25,000  Level Houston Center
02:49PM 31.0961 -99.7058 110° East 472 543 25,000  Level Houston Center
02:50PM 31.0506 -99.5614 110° East 472 543 25,000  Level Houston Center
02:51PM 30.9956 -99.3964 111° Southeast 464 534 25,000  Level Houston Center
02:52PM 30.9506 -99.2514 110° East 469 540 25,000  Level Houston Center
02:53PM 30.9022 -99.1089 112° Southeast 469 540 25,000  Level Houston Center
02:54PM 30.8553 -98.9653 111° Southeast 469 540 25,000  Level Houston Center
02:55PM 30.8100 -98.8256 111° Southeast 461 531 25,000  Level Houston Center
02:56PM 30.7992 -98.6769 95° East 460 529 25,000  Level Houston Center
02:57PM 30.8025 -98.5269 88° East 459 528 25,000  Level Houston Center
02:58PM 30.8053 -98.3528 89° East 458 527 25,000  Level Houston Center
02:59PM 30.8078 -98.2031 89° East 458 527 25,000  Level Houston Center
03:00PM 30.8100 -98.0553 89° East 456 525 25,000  Level Houston Center
03:01PM 30.8131 -97.9044 89° East 461 531 25,000  Level Houston Center
03:02PM 30.8144 -97.7558 89° East 457 526 25,000  Level Houston Center
03:03PM 30.8161 -97.6069 89° East 458 527 25,000  Level Houston Center
03:04PM 30.8175 -97.4325 89° East 461 531 25,000  Level Houston Center
03:05PM 30.8194 -97.2839 89° East 464 534 25,000  Level Houston Center
03:06PM 30.7983 -97.1375 99° East 467 537 25,000  Level Houston Center
03:07PM 30.7606 -96.9936 107° East 466 536 25,000  Level Houston Center
03:08PM 30.7208 -96.8514 108° East 463 533 25,000 -528 Level Houston Center
03:10PM 30.6750 -96.6811 107° East 470 541 23,900 -1,694 Descending Houston Center
03:11PM 30.6389 -96.5406 107° East 455 524 21,500 -2,323 Descending Houston Center
03:12PM 30.6031 -96.4072 107° East 434 499 19,100 -2,371 Descending Houston Center
03:13PM 30.5675 -96.2756 107° East 426 490 16,600 -2,468 Descending Houston Center
03:14PM 30.5311 -96.1461 108° East 420 483 14,000 -2,673 Descending Houston Center
03:14PM 30.5081 -96.0603 107° East 406 467 12,100 -2,129 Descending Houston Center
03:15PM 30.4989 -96.0319 111° Southeast 407 468 11,800 -1,129 Descending Houston Center
03:16PM 30.4642 -95.9000 107° East 361 415 10,500 -1,333 Descending Houston Center
03:16PM 30.4517 -95.8681 114° Southeast 322 371 10,000 -1,065 Descending Houston Center
03:17PM 30.4008 -95.8450 159° South 334 384 9,400 -871 Descending Houston Center
03:17PM 30.3692 -95.8389 171° South 317 365 9,100 -871 Descending Houston Center
03:18PM 30.3158 -95.8322 174° South 317 365 8,500 -1,000 Descending Houston Center
03:18PM 30.2847 -95.8317 179° South 291 335 8,100 -484 Descending Houston Center
03:19PM 30.2347 -95.8342 182° South 299 344 8,000 -56 Descending Houston Center
03:20PM 30.1575 -95.8411 184° South 286 329 8,000  Level Houston Center
03:21PM 30.0756 -95.8453 183° South 252 290 8,000  Level Houston Center
03:21PM 30.0569 -95.8436 176° South 255 293 8,000 -316 Level Houston Center
03:22PM 30.0158 -95.7833 128° Southeast 214 246 7,600 -716 Descending Houston Center
03:23PM 29.9914 -95.7425 125° Southeast 223 257 6,700 -1,145 Descending Houston Center
03:24PM 29.9939 -95.6775 87° East 207 238 5,500 -1,065 Descending Houston Center
03:25PM 29.9931 -95.6203 91° East 185 213 4,500 -1,023 Descending Houston Center
03:26PM 29.9911 -95.5522 92° East 168 193 3,300 -1,008 Descending Houston Center
03:27PM 29.9931 -95.4989 88° East 171 197 2,400 -931 Descending Houston Center